Springfield, South Carolina
Current Conditions -  °F | °C
As of 9:55 PM on Tuesday 21 Oct 2014 (Local Time) from KBNL Reporting Station
Clear Clear  
Wind Chill: 59°   Ceiling: Unl
Heat Index: 59°   Visibility: 10mi
Dew Point: 52°   Wind: 3mph
Humidity: 77%   Direction: 270°W
Pressure: 29.95"   Gusts: NA
Location:  33.5°N, 81.28°W
Report Text: KBNL 220155Z AUTO 27003KT 10SM CLR 15/11 A2995 RMK AO2
Loading
Personal Weather Stations






























Interactive Weather Map New forecast layout! Learn more

10-Day Weather Forecast

Advertisements
Track Severe Weather on mobile